Nearby METAR Reports

KLNK - Lincoln, Nebraska, USA
Distance from station: WNW 8mi, 13km
Updated: Sun, 24-Sep-2017 9:33pm CDT
Nearby thunderstorm, Light rain, Mostly cloudy
Nearby thunderstorm, Light rain, Mostly cloudy
 Wind from N
Wind: N 5 mph , 7 km/h
Temperature: 66°F , 19°C
Dew Point: 64°F , 18°C
Humidity: 94%
Barometer: 29.95 inHg , 1014.2 hPa
Summary: Nearby thunderstorm, Light rain
Clouds: Mostly Cloudy
Visibility: 7 miles , 11 km
Cloud details: Few Clouds 4000 ft
Mostly Cloudy 7000 ft
Mostly Cloudy 9500 ft
2017/09/25 02:33 KLNK 250233Z 36004KT 7SM VCTS -RA FEW040 BKN070 BKN095 19/18 A2995 RMK AO2 LTG DSNT NE AND S RAE05B21 P0002 T01940178
KAHQ - Wahoo, Nebraska, USA
Distance from station: N 31mi, 49km
Updated: Sun, 24-Sep-2017 9:35pm CDT
Light rain, Mostly cloudy
Light rain, Mostly cloudy
 Wind from N
Wind: N 9 mph , 15 km/h
Temperature: 64°F , 18°C
Dew Point: 63°F , 17°C
Humidity: 94%
Barometer: 29.94 inHg , 1013.9 hPa
Summary: Light Rain
Clouds: Mostly Cloudy
Visibility: 10 miles , 16 km
Cloud details: Partly Cloudy 1900 ft
Partly Cloudy 5000 ft
Mostly Cloudy 10000 ft
2017/09/25 02:35 KAHQ 250235Z AUTO 36008KT 10SM -RA SCT019 SCT050 BKN100 18/17 A2994 RMK AO2 P0003 T01810166
 
KBIE - Beatrice Municip, Nebraska, USA
Distance from station: S 36mi, 57km
Updated: Sun, 24-Sep-2017 9:35pm CDT

 Wind from N
Wind: N 7 mph , 11 km/h
Visibility: 3 miles , 5 km
2017/09/25 02:35 KBIE 250235Z AUTO 01006KT 3SM -VCTSRA SCT009 BKN047 OVC110 20/20 A2994 RMK AO2 LTG DSNT ALQS P0030 T02020198
KMLE - Omaha/Millard, Nebraska, USA
Distance from station: NE 39mi, 63km
Updated: Sun, 24-Sep-2017 9:35pm CDT
Mostly Cloudy
Mostly Cloudy
 Wind from NNW
Wind: NNW 7 mph , 11 km/h
Temperature: 72°F , 22°C
Dew Point: 66°F , 19°C
Humidity: 83%
Barometer: 29.94 inHg , 1013.9 hPa
Clouds: Mostly Cloudy
Visibility: 10 miles , 16 km
Cloud details: Partly Cloudy 1200 ft
Mostly Cloudy 6000 ft
Mostly Cloudy 7000 ft
2017/09/25 02:35 KMLE 250235Z AUTO 34006KT 10SM SCT012 BKN060 BKN070 22/19 A2994 RMK AO2 LTG DSNT SW T02150186
 
KPMV - Plattsmouth Muni, Nebraska, USA
Distance from station: ENE 39mi, 63km
Updated: Sun, 24-Sep-2017 9:35pm CDT
Clear
Clear
 Wind from NNW
Wind: NNW 5 mph , 7 km/h
Temperature: 75°F , 24°C
Dew Point: 64°F , 18°C
Humidity: 69%
Barometer: 29.91 inHg , 1012.9 hPa
Clouds: Clear
Visibility: 10 miles , 16 km
2017/09/25 02:35 KPMV 250235Z AUTO 33004KT 10SM CLR 24/18 A2991 RMK AO2 T02350183
KAFK - Nebraska City, Nebraska, USA
Distance from station: ESE 43mi, 69km
Updated: Sun, 24-Sep-2017 9:35pm CDT
Partly Cloudy
Partly Cloudy
 Wind from SSE
Wind: SSE 7 mph , 11 km/h
Temperature: 73°F , 23°C
Dew Point: 68°F , 20°C
Humidity: 83%
Barometer: 29.91 inHg , 1012.9 hPa
Clouds: Partly Cloudy
Visibility: 10 miles , 16 km
Cloud details: Partly Cloudy 12000 ft
2017/09/25 02:35 KAFK 250235Z AUTO 16006KT 10SM SCT120 23/20 A2991 RMK AO2 T02340203
 
KOFF - Offutt Afb/Belle, Nebraska, USA
Distance from station: ENE 44mi, 70km
Updated: Sun, 24-Sep-2017 8:56pm CDT
Mostly Cloudy
Mostly Cloudy
 Wind from N
Wind: N 6 mph , 9 km/h
Temperature: 73°F , 23°C
Dew Point: 68°F , 20°C
Humidity: 83%
Barometer: 29.89 inHg , 1012.2 hPa
Clouds: Mostly Cloudy
Visibility: 10 miles , 16 km
Cloud details: Mostly Cloudy 6000 ft
2017/09/25 01:56 KOFF 250156Z AUTO 35005KT 10SM BKN060 23/20 A2989 RMK AO2 SLP119 T02330198 $
KFET - Fremont Muni Arp, Nebraska, USA
Distance from station: N 46mi, 74km
Updated: Sun, 24-Sep-2017 9:35pm CDT
Rain, Mostly cloudy
Rain, Mostly cloudy
 Wind from NNW
Wind: NNW 7 mph , 11 km/h
Temperature: 64°F , 18°C
Dew Point: 59°F , 15°C
Humidity: 83%
Barometer: 29.97 inHg , 1014.9 hPa
Summary: Rain
Clouds: Mostly Cloudy
Visibility: 10 miles , 16 km
Cloud details: Partly Cloudy 4900 ft
Mostly Cloudy 5500 ft
Mostly Cloudy 9000 ft
2017/09/25 02:35 KFET 250235Z AUTO 33006KT 10SM RA SCT049 BKN055 BKN090 18/15 A2997 RMK AO2 LTG DSNT S T01820146
 
KBTA - Blair Muni, Nebraska, USA
Distance from station: NNE 51mi, 82km
Updated: Sun, 24-Sep-2017 9:35pm CDT
Mostly Cloudy
Mostly Cloudy
 Wind from NNW
Wind: NNW 12 mph , 19 km/h
Temperature: 66°F , 19°C
Dew Point: 63°F , 17°C
Humidity: 88%
Barometer: 29.94 inHg , 1013.9 hPa
Clouds: Mostly Cloudy
Visibility: 10 miles , 16 km
Cloud details: Mostly Cloudy 6000 ft
2017/09/25 02:35 KBTA 250235Z AUTO 34010KT 10SM BKN060 19/17 A2994 RMK AO2 T01900168
KJYR - York, Nebraska, USA
Distance from station: W 52mi, 84km
Updated: Sun, 24-Sep-2017 9:35pm CDT
Overcast
Overcast
 Wind from NNE
Wind: NNE 14 mph , 22 km/h
Temperature: 59°F , 15°C
Dew Point: 59°F , 15°C
Humidity: 100%
Barometer: 29.96 inHg , 1014.6 hPa
Clouds: Overcast
Visibility: 10 miles , 16 km
Cloud details: Few Clouds 7000 ft
Partly Cloudy 8500 ft
Overcast 10000 ft
2017/09/25 02:35 KJYR 250235Z AUTO 02012KT 10SM FEW070 SCT085 OVC100 15/15 A2996 RMK AO2
 
KOMA - Omaha/Eppley, Nebraska, USA
Distance from station: NE 53mi, 85km
Updated: Sun, 24-Sep-2017 8:52pm CDT
Overcast
Overcast
 Wind from N
Wind: N 12 mph , 19 km/h
Temperature: 70°F , 21°C
Dew Point: 64°F , 18°C
Humidity: 83%
Barometer: 29.91 inHg , 1012.9 hPa
Clouds: Overcast
Visibility: 10 miles , 16 km
Cloud details: Partly Cloudy 8500 ft
Mostly Cloudy 11000 ft
Overcast 25000 ft
2017/09/25 01:52 KOMA 250152Z 36010KT 10SM SCT085 BKN110 OVC250 21/18 A2991 RMK AO2 SLP119 T02110178
KOLU - Columbus Muni, Nebraska, USA
Distance from station: NW 58mi, 93km
Updated: Sun, 24-Sep-2017 8:56pm CDT
Overcast
Overcast
 Wind from NNW
Wind: NNW 9 mph , 15 km/h
Temperature: 59°F , 15°C
Dew Point: 57°F , 14°C
Humidity: 94%
Barometer: 29.98 inHg , 1015.2 hPa
Clouds: Overcast
Visibility: 10 miles , 16 km
Cloud details: Mostly Cloudy 800 ft
Overcast 11000 ft
2017/09/25 01:56 KOLU 250156Z AUTO 34008KT 10SM BKN008 OVC110 15/14 A2998 RMK AO2 LTG DSNT W RAE32 SLP149 P0003 T01500139